createdAt,value
2022-09-15T00:00:08.776Z,986.9
2022-09-15T00:01:10.181Z,986.9
2022-09-15T00:02:11.293Z,986.9
2022-09-15T00:03:12.234Z,986.9
2022-09-15T00:04:13.194Z,986.9
2022-09-15T00:05:14.254Z,986.9
2022-09-15T00:06:15.200Z,986.9
2022-09-15T00:07:16.206Z,986.9
2022-09-15T00:08:17.200Z,986.9
2022-09-15T00:09:18.215Z,986.9
2022-09-15T00:10:19.258Z,986.8
2022-09-15T00:11:20.214Z,986.8
2022-09-15T00:12:21.221Z,986.8
2022-09-15T00:13:22.248Z,986.8
2022-09-15T00:14:23.732Z,986.8
2022-09-15T00:15:25.277Z,986.8
2022-09-15T00:16:26.278Z,986.8
2022-09-15T00:17:27.246Z,986.8
2022-09-15T00:18:28.224Z,986.8
2022-09-15T00:19:29.223Z,986.8
2022-09-15T00:20:30.255Z,986.7
2022-09-15T00:21:31.290Z,986.8
2022-09-15T00:22:32.231Z,986.7
2022-09-15T00:23:33.303Z,986.7
2022-09-15T00:24:34.238Z,986.8
2022-09-15T00:25:35.239Z,986.7
2022-09-15T00:26:36.258Z,986.7
2022-09-15T00:27:37.238Z,986.7
2022-09-15T00:28:38.227Z,986.7
2022-09-15T00:29:39.262Z,986.6
2022-09-15T00:30:40.354Z,986.6
2022-09-15T00:31:41.281Z,986.6
2022-09-15T00:32:42.267Z,986.5
2022-09-15T00:33:43.697Z,986.5
2022-09-15T00:34:45.258Z,986.6
2022-09-15T00:35:46.246Z,986.5
2022-09-15T00:36:47.318Z,986.6
2022-09-15T00:37:48.255Z,986.6
2022-09-15T00:38:49.263Z,986.6
2022-09-15T00:39:50.307Z,986.6
2022-09-15T00:40:51.272Z,986.6
2022-09-15T00:41:52.286Z,986.6
2022-09-15T00:42:53.490Z,986.5
2022-09-15T00:43:55.265Z,986.5
2022-09-15T00:44:56.281Z,986.4
2022-09-15T00:45:57.334Z,986.4
2022-09-15T00:47:15.485Z,986.4
2022-09-15T00:47:59.266Z,986.4
2022-09-15T00:49:00.284Z,986.4
2022-09-15T00:50:01.316Z,986.4
2022-09-15T00:51:02.276Z,986.4
2022-09-15T00:52:03.516Z,986.4
2022-09-15T00:53:06.360Z,986.4
2022-09-15T00:54:07.268Z,986.4
2022-09-15T00:55:08.289Z,986.4
2022-09-15T00:56:09.284Z,986.3
2022-09-15T00:57:10.569Z,986.3
2022-09-15T00:58:12.285Z,986.3
2022-09-15T01:00:41.326Z,986.4
2022-09-15T01:01:43.589Z,986.4
2022-09-15T01:02:45.408Z,986.5
2022-09-15T01:03:46.302Z,986.5
2022-09-15T01:04:47.304Z,986.5
2022-09-15T01:05:48.317Z,986.5
2022-09-15T01:06:49.300Z,986.5
2022-09-15T01:07:50.339Z,986.5
2022-09-15T01:08:51.453Z,986.5
2022-09-15T01:09:52.295Z,986.5
2022-09-15T01:10:53.688Z,986.5
2022-09-15T01:11:55.301Z,986.4
2022-09-15T01:12:56.328Z,986.4
2022-09-15T01:13:57.350Z,986.4
2022-09-15T01:14:58.334Z,986.4
2022-09-15T01:15:59.376Z,986.4
2022-09-15T01:17:06.809Z,986.4
2022-09-15T01:18:08.314Z,986.5
2022-09-15T01:19:09.359Z,986.5
2022-09-15T01:20:10.354Z,986.4
2022-09-15T01:21:11.314Z,986.5
2022-09-15T01:22:12.350Z,986.5
2022-09-15T01:23:13.724Z,986.5
2022-09-15T01:24:15.371Z,986.5
2022-09-15T01:25:16.334Z,986.5
2022-09-15T01:26:17.471Z,986.6
2022-09-15T01:27:40.836Z,986.6
2022-09-15T01:28:20.334Z,986.5
2022-09-15T01:29:21.846Z,986.5
2022-09-15T01:30:22.385Z,986.5
2022-09-15T01:31:23.466Z,986.5
2022-09-15T01:32:24.382Z,986.5
2022-09-15T01:33:25.349Z,986.5
2022-09-15T01:34:26.408Z,986.4
2022-09-15T01:35:27.347Z,986.4
2022-09-15T01:36:28.355Z,986.4
2022-09-15T01:37:29.338Z,986.3
2022-09-15T01:38:30.370Z,986.3
2022-09-15T01:39:31.386Z,986.3
2022-09-15T01:40:32.405Z,986.3
2022-09-15T01:41:33.412Z,986.3
2022-09-15T01:42:34.359Z,986.3
2022-09-15T01:43:35.360Z,986.4
2022-09-15T01:44:36.420Z,986.4
2022-09-15T01:45:37.450Z,986.4
2022-09-15T01:46:38.384Z,986.4
2022-09-15T01:47:39.394Z,986.4
2022-09-15T01:48:40.380Z,986.4
2022-09-15T01:49:41.397Z,986.4
2022-09-15T01:50:42.368Z,986.4
2022-09-15T01:51:43.366Z,986.4
2022-09-15T01:52:44.430Z,986.4
2022-09-15T01:53:45.390Z,986.5
2022-09-15T01:54:46.405Z,986.5
2022-09-15T01:55:47.370Z,986.5
2022-09-15T01:56:48.382Z,986.5
2022-09-15T01:57:49.371Z,986.5
2022-09-15T01:58:50.383Z,986.5
2022-09-15T01:59:51.446Z,986.5
2022-09-15T02:00:52.411Z,986.5
2022-09-15T02:01:53.691Z,986.5
2022-09-15T02:02:55.412Z,986.5
2022-09-15T02:03:56.385Z,986.5
2022-09-15T02:04:57.411Z,986.5
2022-09-15T02:05:58.391Z,986.5
2022-09-15T02:06:59.389Z,986.5
2022-09-15T02:08:00.395Z,986.5
2022-09-15T02:09:01.419Z,986.5
2022-09-15T02:10:02.581Z,986.5
2022-09-15T02:11:04.410Z,986.5
2022-09-15T02:12:05.434Z,986.5
2022-09-15T02:13:06.434Z,986.5
2022-09-15T02:14:07.425Z,986.5
2022-09-15T02:15:08.455Z,986.5
2022-09-15T02:16:09.942Z,986.5
2022-09-15T02:17:11.437Z,986.5
2022-09-15T02:18:12.444Z,986.5
2022-09-15T02:19:13.420Z,986.5
2022-09-15T02:20:14.414Z,986.5
2022-09-15T02:21:15.425Z,986.5
2022-09-15T02:22:16.421Z,986.6
2022-09-15T02:23:17.449Z,986.6
2022-09-15T02:24:18.412Z,986.6
2022-09-15T02:25:19.458Z,986.7
2022-09-15T02:26:20.421Z,986.6
2022-09-15T02:27:21.425Z,986.7
2022-09-15T02:28:22.485Z,986.7
2022-09-15T02:29:23.488Z,986.7
2022-09-15T02:30:24.424Z,986.7
2022-09-15T02:31:25.489Z,986.6
2022-09-15T02:32:26.458Z,986.6
2022-09-15T02:33:27.504Z,986.6
2022-09-15T02:34:28.464Z,986.6
2022-09-15T02:35:29.645Z,986.6
2022-09-15T02:36:31.487Z,986.6
2022-09-15T02:37:32.454Z,986.6
2022-09-15T02:38:33.726Z,986.6
2022-09-15T02:39:35.469Z,986.6
2022-09-15T02:40:36.490Z,986.6
2022-09-15T02:41:37.445Z,986.6
2022-09-15T02:42:38.451Z,986.6
2022-09-15T02:43:40.545Z,986.6
2022-09-15T02:44:42.499Z,986.7
2022-09-15T02:45:43.587Z,986.7
2022-09-15T02:46:45.565Z,986.7
2022-09-15T02:47:47.492Z,986.7
2022-09-15T02:48:48.458Z,986.7
2022-09-15T02:49:49.660Z,986.7
2022-09-15T02:50:51.465Z,986.6
2022-09-15T02:51:52.460Z,986.7
2022-09-15T02:52:53.470Z,986.6
2022-09-15T02:53:54.989Z,986.6
2022-09-15T02:54:56.504Z,986.6
2022-09-15T02:55:57.523Z,986.6
2022-09-15T02:56:58.470Z,986.6
2022-09-15T02:57:59.871Z,986.6
2022-09-15T02:59:01.516Z,986.6
2022-09-15T03:00:02.595Z,986.6
2022-09-15T03:01:05.717Z,986.6
2022-09-15T03:02:07.578Z,986.6
2022-09-15T03:03:08.513Z,986.7
2022-09-15T03:04:10.020Z,986.7
2022-09-15T03:05:11.497Z,986.6
2022-09-15T03:06:12.555Z,986.6
2022-09-15T03:07:13.493Z,986.6
2022-09-15T03:08:14.481Z,986.6
2022-09-15T03:09:15.493Z,986.6
2022-09-15T03:10:16.494Z,986.6
2022-09-15T03:11:17.534Z,986.6
2022-09-15T03:12:18.569Z,986.6
2022-09-15T03:13:19.917Z,986.6
2022-09-15T03:14:21.495Z,986.6
2022-09-15T03:15:22.543Z,986.6
2022-09-15T03:16:23.581Z,986.6
2022-09-15T03:17:24.597Z,986.6
2022-09-15T03:18:25.600Z,986.6
2022-09-15T03:19:26.517Z,986.6
2022-09-15T03:20:27.547Z,986.6
2022-09-15T03:21:28.514Z,986.6
2022-09-15T03:22:29.690Z,986.6
2022-09-15T03:23:31.596Z,986.6
2022-09-15T03:24:32.516Z,986.7
2022-09-15T03:25:33.524Z,986.7
2022-09-15T03:26:34.569Z,986.7
2022-09-15T03:27:35.563Z,986.7
2022-09-15T03:28:37.313Z,986.8
2022-09-15T03:29:38.519Z,986.8
2022-09-15T03:30:39.584Z,986.8
2022-09-15T03:31:40.591Z,986.8
2022-09-15T03:32:41.554Z,986.9
2022-09-15T03:33:42.568Z,986.9
2022-09-15T03:34:43.537Z,987
2022-09-15T03:35:44.626Z,987
2022-09-15T03:36:45.541Z,987
2022-09-15T03:37:46.596Z,987
2022-09-15T03:38:47.556Z,987
2022-09-15T03:39:48.593Z,987
2022-09-15T03:40:49.612Z,987
2022-09-15T03:41:50.555Z,987
2022-09-15T03:42:51.567Z,987.1
2022-09-15T03:43:52.626Z,987.1
2022-09-15T03:44:53.566Z,987.1
2022-09-15T03:45:54.821Z,987.2
2022-09-15T03:46:57.627Z,987.2
2022-09-15T03:47:58.626Z,987.1
2022-09-15T03:48:59.617Z,987.1
2022-09-15T03:50:00.563Z,987.1
2022-09-15T03:51:01.611Z,987
2022-09-15T03:52:02.609Z,987
2022-09-15T03:53:03.597Z,987.1
2022-09-15T03:54:04.598Z,987.1
2022-09-15T03:55:05.562Z,987.2
2022-09-15T03:56:06.561Z,987.2
2022-09-15T03:57:07.637Z,987.3
2022-09-15T03:58:08.580Z,987.3
2022-09-15T03:59:09.605Z,987.3
2022-09-15T04:00:10.577Z,987.4
2022-09-15T04:01:11.891Z,987.4
2022-09-15T04:02:13.688Z,987.5
2022-09-15T04:03:14.631Z,987.5
2022-09-15T04:04:15.607Z,987.5
2022-09-15T04:05:16.579Z,987.5
2022-09-15T04:06:17.601Z,987.5
2022-09-15T04:07:18.659Z,987.5
2022-09-15T04:08:19.632Z,987.5
2022-09-15T04:09:20.602Z,987.5
2022-09-15T04:10:21.658Z,987.5
2022-09-15T04:11:22.600Z,987.4
2022-09-15T04:12:23.658Z,987.4
2022-09-15T04:13:28.533Z,987.4
2022-09-15T04:14:25.595Z,987.4
2022-09-15T04:15:27.738Z,987.3
2022-09-15T04:16:29.821Z,987.3
2022-09-15T04:17:31.651Z,987.3
2022-09-15T04:18:32.658Z,987.3
2022-09-15T04:19:33.633Z,987.3
2022-09-15T04:20:34.652Z,987.3
2022-09-15T04:21:35.608Z,987.3
2022-09-15T04:22:36.698Z,987.3
2022-09-15T04:23:37.675Z,987.4
2022-09-15T04:24:38.615Z,987.4
2022-09-15T04:25:39.630Z,987.4
2022-09-15T04:26:40.623Z,987.5
2022-09-15T04:27:41.841Z,987.5
2022-09-15T04:28:43.680Z,987.5
2022-09-15T04:29:44.625Z,987.6
2022-09-15T04:30:45.638Z,987.5
2022-09-15T04:31:46.860Z,987.6
2022-09-15T04:32:47.647Z,987.6
2022-09-15T04:33:48.654Z,987.6
2022-09-15T04:34:49.774Z,987.5
2022-09-15T04:35:50.669Z,987.5
2022-09-15T04:36:51.639Z,987.5
2022-09-15T04:37:52.645Z,987.5
2022-09-15T04:38:53.643Z,987.5
2022-09-15T04:39:54.795Z,987.5
2022-09-15T04:40:56.664Z,987.6
2022-09-15T04:41:57.629Z,987.6
2022-09-15T04:42:58.682Z,987.6
2022-09-15T04:43:59.698Z,987.6
2022-09-15T04:45:00.666Z,987.6
2022-09-15T04:46:01.705Z,987.6
2022-09-15T04:47:02.735Z,987.6
2022-09-15T04:48:03.678Z,987.6
2022-09-15T04:49:04.680Z,987.6
2022-09-15T04:50:05.847Z,987.6
2022-09-15T04:51:07.607Z,987.6
2022-09-15T04:52:09.774Z,987.6
2022-09-15T04:53:09.687Z,987.6
2022-09-15T04:54:10.656Z,987.6
2022-09-15T04:55:11.657Z,987.6
2022-09-15T04:56:12.713Z,987.6
2022-09-15T04:57:13.670Z,987.6
2022-09-15T04:58:14.735Z,987.7
2022-09-15T04:59:15.657Z,987.7
2022-09-15T05:00:16.681Z,987.6
2022-09-15T05:01:17.767Z,987.6
2022-09-15T05:02:18.893Z,987.7
2022-09-15T05:03:19.669Z,987.7
2022-09-15T05:04:20.684Z,987.7
2022-09-15T05:05:21.692Z,987.7
2022-09-15T05:06:22.668Z,987.8
2022-09-15T05:07:23.710Z,987.8
2022-09-15T05:08:25.916Z,987.8
2022-09-15T05:09:27.677Z,987.8
2022-09-15T05:10:28.684Z,987.8
2022-09-15T05:11:29.721Z,987.8
2022-09-15T05:12:30.688Z,987.8
2022-09-15T05:13:31.749Z,987.9
2022-09-15T05:14:32.717Z,987.9
2022-09-15T05:15:33.685Z,987.8
2022-09-15T05:16:35.871Z,987.8
2022-09-15T05:17:37.685Z,987.8
2022-09-15T05:18:38.999Z,987.8
2022-09-15T05:19:40.734Z,987.8
2022-09-15T05:20:41.712Z,987.7
2022-09-15T05:21:42.703Z,987.8
2022-09-15T05:22:43.706Z,987.8
2022-09-15T05:23:44.809Z,987.8
2022-09-15T05:24:45.718Z,987.7
2022-09-15T05:25:46.700Z,987.7
2022-09-15T05:26:47.706Z,987.8
2022-09-15T05:27:48.724Z,987.8
2022-09-15T05:28:49.773Z,987.8
2022-09-15T05:30:00.390Z,987.8
2022-09-15T05:30:52.846Z,987.8
2022-09-15T05:31:54.821Z,987.8
2022-09-15T05:32:55.708Z,987.8
2022-09-15T05:33:57.014Z,987.8
2022-09-15T05:34:58.727Z,987.8
2022-09-15T05:35:59.798Z,987.9
2022-09-15T05:37:00.723Z,987.9
2022-09-15T05:38:01.989Z,987.9
2022-09-15T05:39:03.728Z,987.9
2022-09-15T05:40:08.342Z,987.9
2022-09-15T05:41:05.764Z,987.9
2022-09-15T05:42:06.797Z,987.9
2022-09-15T05:43:07.758Z,987.9
2022-09-15T05:44:08.929Z,988
2022-09-15T05:45:10.823Z,988
2022-09-15T05:46:11.888Z,988
2022-09-15T05:47:12.729Z,987.9
2022-09-15T05:48:13.756Z,988
2022-09-15T05:49:15.943Z,988
2022-09-15T05:50:17.733Z,988
2022-09-15T05:51:18.761Z,988
2022-09-15T05:52:19.740Z,988.1
2022-09-15T05:53:20.740Z,988
2022-09-15T05:54:22.870Z,988.1
2022-09-15T05:55:24.765Z,988
2022-09-15T05:56:26.462Z,988.1
2022-09-15T05:57:27.757Z,988
2022-09-15T05:58:29.004Z,988
2022-09-15T05:59:31.021Z,988
2022-09-15T06:00:32.770Z,988
2022-09-15T06:01:33.823Z,988
2022-09-15T06:02:34.837Z,988
2022-09-15T06:03:35.786Z,988
2022-09-15T06:04:37.916Z,988
2022-09-15T06:05:39.806Z,988.1
2022-09-15T06:06:41.569Z,988
2022-09-15T06:07:42.787Z,988.1
2022-09-15T06:08:44.517Z,988
2022-09-15T06:09:45.802Z,987.9
2022-09-15T06:10:47.112Z,988
2022-09-15T06:11:48.774Z,988
2022-09-15T06:12:49.786Z,988
2022-09-15T06:13:51.609Z,988
2022-09-15T06:14:52.810Z,987.9
2022-09-15T06:15:53.925Z,988
2022-09-15T06:16:55.785Z,988
2022-09-15T06:17:57.854Z,987.8
2022-09-15T06:18:59.364Z,987.7
2022-09-15T06:20:00.811Z,987.8
2022-09-15T06:21:02.930Z,987.7
2022-09-15T06:22:04.854Z,987.8
2022-09-15T06:23:06.560Z,987.9
2022-09-15T06:24:07.893Z,987.9
2022-09-15T06:25:09.551Z,988
2022-09-15T06:26:11.494Z,987.9
2022-09-15T06:27:13.044Z,987.9
2022-09-15T06:28:14.816Z,987.7
2022-09-15T06:29:15.884Z,987.8
2022-09-15T06:30:17.063Z,987.9
2022-09-15T06:31:18.913Z,987.8
2022-09-15T06:32:20.893Z,988
2022-09-15T06:33:22.702Z,988
2022-09-15T06:34:26.658Z,988
2022-09-15T06:35:29.007Z,988
2022-09-15T06:36:30.871Z,988
2022-09-15T06:37:32.899Z,988.1
2022-09-15T06:38:34.062Z,988.1
2022-09-15T06:39:35.888Z,988
2022-09-15T06:40:37.081Z,988
2022-09-15T06:41:58.707Z,988
2022-09-15T06:42:40.083Z,988
2022-09-15T06:43:41.919Z,987.7
2022-09-15T06:44:42.879Z,987.8
2022-09-15T06:45:44.349Z,987.9
2022-09-15T06:46:46.542Z,988
2022-09-15T06:47:58.223Z,987.7
2022-09-15T06:48:49.881Z,987.7
2022-09-15T06:49:51.540Z,987.9
2022-09-15T06:50:52.841Z,987.9
2022-09-15T06:51:53.920Z,988
2022-09-15T06:52:55.656Z,987.6
2022-09-15T06:53:57.190Z,987.7
2022-09-15T06:54:58.917Z,987.6
2022-09-15T06:56:00.186Z,987.4
2022-09-15T06:57:02.725Z,987.4
2022-09-15T06:58:04.141Z,987.4
2022-09-15T06:59:05.874Z,987.4
2022-09-15T07:00:07.501Z,987.4
2022-09-15T07:01:09.420Z,987.3
2022-09-15T07:02:11.825Z,987.7
2022-09-15T07:03:13.391Z,988
2022-09-15T07:04:14.907Z,987.7
2022-09-15T07:05:16.621Z,987.9
2022-09-15T07:06:18.973Z,988
2022-09-15T07:07:20.869Z,988.1
2022-09-15T07:08:22.960Z,987.9
2022-09-15T07:09:24.027Z,987.9
2022-09-15T07:10:25.911Z,987.6
2022-09-15T07:11:27.574Z,987.9
2022-09-15T07:12:29.340Z,987.6
2022-09-15T07:13:31.582Z,987.8
2022-09-15T07:14:33.232Z,988.1
2022-09-15T07:15:35.182Z,988.2
2022-09-15T07:16:38.001Z,988.1
2022-09-15T07:17:39.391Z,987.9
2022-09-15T07:18:43.424Z,988
2022-09-15T07:19:42.876Z,987.8
2022-09-15T07:20:43.902Z,987.7
2022-09-15T07:21:44.926Z,987.7
2022-09-15T07:22:46.586Z,988
2022-09-15T07:23:48.224Z,988.2
2022-09-15T07:24:49.890Z,988.3
2022-09-15T07:25:51.581Z,988.2
2022-09-15T07:26:53.219Z,988.4
2022-09-15T07:27:54.908Z,988.4
2022-09-15T07:28:56.566Z,988.1
2022-09-15T07:29:58.120Z,988
2022-09-15T07:31:00.015Z,987.9
2022-09-15T07:32:01.669Z,988.1
2022-09-15T07:33:03.288Z,988.3
2022-09-15T07:34:04.940Z,988.5
2022-09-15T07:35:06.587Z,988.6
2022-09-15T07:36:07.934Z,988.6
2022-09-15T07:37:08.936Z,988.6
2022-09-15T07:38:10.968Z,988.2
2022-09-15T07:39:12.550Z,988.2
2022-09-15T07:40:14.189Z,988
2022-09-15T07:41:16.021Z,988.1
2022-09-15T07:42:17.990Z,988
2022-09-15T07:43:19.104Z,988
2022-09-15T07:44:21.057Z,988
2022-09-15T07:45:22.993Z,988
2022-09-15T07:46:24.161Z,988.1
2022-09-15T07:47:26.623Z,988.4
2022-09-15T07:48:29.194Z,988.3
2022-09-15T07:49:30.934Z,988.2
2022-09-15T07:50:31.966Z,988.1
2022-09-15T07:51:33.251Z,988.4
2022-09-15T07:52:34.969Z,988.5
2022-09-15T07:53:36.601Z,988.6
2022-09-15T07:54:37.965Z,988.7
2022-09-15T07:55:38.948Z,988.8
2022-09-15T07:56:40.259Z,988.9
2022-09-15T07:57:42.008Z,988.9
2022-09-15T07:58:43.212Z,989
2022-09-15T07:59:44.950Z,989
2022-09-15T08:00:46.607Z,989.1
2022-09-15T08:01:48.165Z,989.1
2022-09-15T08:02:49.953Z,989
2022-09-15T08:03:51.075Z,989
2022-09-15T08:04:52.004Z,989
2022-09-15T08:05:53.312Z,988.8
2022-09-15T08:06:55.262Z,988.7
2022-09-15T08:07:57.007Z,988.6
2022-09-15T08:09:00.590Z,988.5
2022-09-15T08:09:59.994Z,988.5
2022-09-15T08:11:00.984Z,988.5
2022-09-15T08:12:02.119Z,988.5
2022-09-15T08:13:04.000Z,988.6
2022-09-15T08:14:05.038Z,988.6
2022-09-15T08:15:06.655Z,988.6
2022-09-15T08:16:08.869Z,988.6
2022-09-15T08:17:11.600Z,988.6
2022-09-15T08:18:12.005Z,988.5
2022-09-15T08:19:13.304Z,988.8
2022-09-15T08:20:15.116Z,989
2022-09-15T08:21:16.999Z,988.8
2022-09-15T08:22:19.050Z,988.8
2022-09-15T08:23:21.120Z,988.7
2022-09-15T08:24:23.017Z,988.7
2022-09-15T08:25:24.097Z,989
2022-09-15T08:26:25.058Z,989.1
2022-09-15T08:27:26.037Z,989.2
2022-09-15T08:28:27.011Z,989.2
2022-09-15T08:29:28.030Z,988.9
2022-09-15T08:30:29.111Z,988.8
2022-09-15T08:31:30.087Z,988.7
2022-09-15T08:32:31.004Z,988.7
2022-09-15T08:33:32.050Z,988.7
2022-09-15T08:34:33.047Z,988.7
2022-09-15T08:35:34.046Z,988.7
2022-09-15T08:36:35.041Z,988.6
2022-09-15T08:37:36.591Z,988.6
2022-09-15T08:38:38.050Z,988.7
2022-09-15T08:39:39.067Z,988.7
2022-09-15T08:40:41.251Z,988.7
2022-09-15T08:41:42.167Z,988.7
2022-09-15T08:42:44.982Z,988.7
2022-09-15T08:43:45.540Z,988.7
2022-09-15T08:44:47.698Z,988.7
2022-09-15T08:45:49.055Z,988.7
2022-09-15T08:46:50.082Z,988.8
2022-09-15T08:47:51.303Z,988.7
2022-09-15T08:48:53.113Z,988.8
2022-09-15T08:49:54.117Z,988.9
2022-09-15T08:50:55.026Z,988.8
2022-09-15T08:51:56.676Z,988.9
2022-09-15T08:52:58.047Z,988.9
2022-09-15T08:53:59.133Z,988.9
2022-09-15T08:55:01.163Z,988.7
2022-09-15T08:56:04.620Z,988.9
2022-09-15T08:57:04.140Z,988.9
2022-09-15T08:58:05.083Z,988.9
2022-09-15T08:59:06.422Z,988.9
2022-09-15T09:00:08.137Z,988.8
2022-09-15T09:01:09.125Z,988.8
2022-09-15T09:02:10.157Z,988.6
2022-09-15T09:03:11.111Z,988.5
2022-09-15T09:04:14.535Z,988.5
2022-09-15T09:05:13.130Z,988.5
2022-09-15T09:06:14.061Z,988.4
2022-09-15T09:07:15.152Z,988.6
2022-09-15T09:08:16.637Z,988.6
2022-09-15T09:09:18.115Z,988.7
2022-09-15T09:10:19.311Z,988.8
2022-09-15T09:11:21.094Z,988.8
2022-09-15T09:12:22.171Z,988.8
2022-09-15T09:13:23.279Z,988.8
2022-09-15T09:14:25.092Z,988.7
2022-09-15T09:15:26.128Z,988.7
2022-09-15T09:16:27.072Z,988.7
2022-09-15T09:17:28.133Z,988.8
2022-09-15T09:18:29.406Z,988.8
2022-09-15T09:19:32.242Z,988.8
2022-09-15T09:20:32.126Z,988.9
2022-09-15T09:21:33.109Z,988.9
2022-09-15T09:22:34.106Z,988.9
2022-09-15T09:23:35.154Z,988.9
2022-09-15T09:24:36.094Z,988.8
2022-09-15T09:25:37.093Z,988.6
2022-09-15T09:26:38.488Z,988.7
2022-09-15T09:27:40.121Z,988.7
2022-09-15T09:28:41.150Z,988.7
2022-09-15T09:29:43.267Z,988.8
2022-09-15T09:30:45.237Z,988.8
2022-09-15T09:31:46.135Z,988.7
2022-09-15T09:32:47.125Z,988.8
2022-09-15T09:33:48.185Z,988.7
2022-09-15T09:34:49.151Z,988.6
2022-09-15T09:35:50.121Z,988.6
2022-09-15T09:36:51.158Z,988.7
2022-09-15T09:37:52.115Z,988.6
2022-09-15T09:38:53.168Z,988.7
2022-09-15T09:39:54.190Z,988.8
2022-09-15T09:40:58.648Z,988.8
2022-09-15T09:41:56.247Z,988.8
2022-09-15T09:42:57.113Z,988.8
2022-09-15T09:43:58.131Z,988.9
2022-09-15T09:44:59.148Z,988.9
2022-09-15T09:46:00.228Z,988.8
2022-09-15T09:47:01.211Z,988.8
2022-09-15T09:48:02.347Z,988.9
2022-09-15T09:49:04.171Z,988.9
2022-09-15T09:50:05.224Z,988.9
2022-09-15T09:51:07.134Z,988.9
2022-09-15T09:52:08.138Z,988.9
2022-09-15T09:53:09.243Z,988.9
2022-09-15T09:54:10.169Z,988.9
2022-09-15T09:55:11.210Z,988.9
2022-09-15T09:56:12.141Z,988.9
2022-09-15T09:57:13.265Z,988.9
2022-09-15T09:58:14.146Z,988.9
2022-09-15T09:59:15.180Z,988.9
2022-09-15T10:00:16.200Z,988.9
2022-09-15T10:01:17.206Z,988.9
2022-09-15T10:02:18.194Z,988.8
2022-09-15T10:03:19.176Z,988.8
2022-09-15T10:04:21.309Z,988.8
2022-09-15T10:05:22.179Z,988.7
2022-09-15T10:06:23.272Z,988.7
2022-09-15T10:07:24.180Z,988.7
2022-09-15T10:08:25.164Z,988.6
2022-09-15T10:09:28.815Z,988.6
2022-09-15T10:10:27.175Z,988.6
2022-09-15T10:11:28.191Z,988.6
2022-09-15T10:12:29.208Z,988.6
2022-09-15T10:13:30.171Z,988.7
2022-09-15T10:14:31.247Z,988.8
2022-09-15T10:15:32.218Z,988.8
2022-09-15T10:16:33.256Z,988.8
2022-09-15T10:17:34.196Z,988.8
2022-09-15T10:18:35.194Z,988.8
2022-09-15T10:19:36.218Z,988.8
2022-09-15T10:20:37.193Z,988.7
2022-09-15T10:21:38.255Z,988.7
2022-09-15T10:22:39.357Z,988.7
2022-09-15T10:23:41.190Z,988.7
2022-09-15T10:24:42.191Z,988.7
2022-09-15T10:25:58.960Z,988.7
2022-09-15T10:26:44.254Z,988.7
2022-09-15T10:27:45.265Z,988.7
2022-09-15T10:28:52.216Z,988.8
2022-09-15T10:29:53.339Z,988.8
2022-09-15T10:30:55.205Z,988.8
2022-09-15T10:31:57.351Z,988.8
2022-09-15T10:32:59.296Z,988.8
2022-09-15T10:34:00.229Z,988.8
2022-09-15T10:35:01.261Z,988.8
2022-09-15T10:36:02.261Z,988.8
2022-09-15T10:37:03.275Z,988.8
2022-09-15T10:38:04.223Z,988.8
2022-09-15T10:39:05.480Z,988.8
2022-09-15T10:40:07.594Z,988.9
2022-09-15T10:41:09.221Z,988.9
2022-09-15T10:42:10.258Z,988.9
2022-09-15T10:43:11.294Z,988.9
2022-09-15T10:44:12.239Z,988.9
2022-09-15T10:45:13.316Z,988.9
2022-09-15T10:46:15.298Z,988.9
2022-09-15T10:47:16.232Z,988.9
2022-09-15T10:48:17.250Z,988.9
2022-09-15T10:49:18.300Z,988.9
2022-09-15T10:50:19.294Z,988.9
2022-09-15T10:51:20.246Z,988.8
2022-09-15T10:52:21.290Z,988.8
2022-09-15T10:53:22.280Z,988.9
2022-09-15T10:54:23.243Z,988.9
2022-09-15T10:55:36.990Z,988.9
2022-09-15T10:56:25.286Z,988.9
2022-09-15T10:58:27.365Z,988.9
2022-09-15T10:59:28.298Z,989
2022-09-15T11:00:29.256Z,988.9
2022-09-15T11:01:30.284Z,988.9
2022-09-15T11:02:31.442Z,988.9
2022-09-15T11:03:33.268Z,988.9
2022-09-15T11:04:34.266Z,988.8
2022-09-15T11:05:35.301Z,988.8
2022-09-15T11:06:36.316Z,988.8
2022-09-15T11:07:37.314Z,988.8
2022-09-15T11:08:38.299Z,988.8
2022-09-15T11:09:39.272Z,988.8
2022-09-15T11:10:40.278Z,988.7
2022-09-15T11:11:41.340Z,988.7
2022-09-15T11:12:42.275Z,988.7
2022-09-15T11:13:43.316Z,988.7
2022-09-15T11:14:44.281Z,988.8
2022-09-15T11:15:45.308Z,988.8
2022-09-15T11:16:46.412Z,988.7
2022-09-15T11:17:47.281Z,988.7
2022-09-15T11:18:48.279Z,988.7
2022-09-15T11:19:49.286Z,988.7
2022-09-15T11:20:50.290Z,988.6
2022-09-15T11:21:51.314Z,988.6
2022-09-15T11:22:52.324Z,988.6
2022-09-15T11:23:53.297Z,988.6
2022-09-15T11:24:54.302Z,988.7
2022-09-15T11:25:55.292Z,988.7
2022-09-15T11:26:56.390Z,988.6
2022-09-15T11:27:58.295Z,988.6
2022-09-15T11:28:59.359Z,988.6
2022-09-15T11:30:00.359Z,988.6
2022-09-15T11:31:01.437Z,988.6
2022-09-15T11:33:04.317Z,988.6
2022-09-15T11:34:05.303Z,988.6
2022-09-15T11:35:06.391Z,988.6
2022-09-15T11:36:07.312Z,988.6
2022-09-15T11:37:08.317Z,988.6
2022-09-15T11:38:12.396Z,988.6
2022-09-15T11:39:10.310Z,988.6
2022-09-15T11:40:11.452Z,988.6
2022-09-15T11:41:13.353Z,988.6
2022-09-15T11:42:14.322Z,988.6
2022-09-15T11:43:15.416Z,988.6
2022-09-15T11:44:17.391Z,988.6
2022-09-15T11:45:18.330Z,988.5
2022-09-15T11:46:19.381Z,988.5
2022-09-15T11:47:20.342Z,988.5
2022-09-15T11:48:21.367Z,988.5
2022-09-15T11:49:22.333Z,988.5
2022-09-15T11:50:23.486Z,988.5
2022-09-15T11:51:25.362Z,988.5
2022-09-15T11:52:26.411Z,988.5
2022-09-15T11:53:27.365Z,988.5
2022-09-15T11:54:31.319Z,988.5
2022-09-15T11:55:29.407Z,988.5
2022-09-15T11:56:30.352Z,988.5
2022-09-15T11:57:31.342Z,988.5
2022-09-15T11:58:33.390Z,988.5
2022-09-15T11:59:34.380Z,988.5
2022-09-15T12:00:35.406Z,988.5
2022-09-15T12:01:36.412Z,988.5
2022-09-15T12:02:37.547Z,988.5
2022-09-15T12:03:39.436Z,988.5
2022-09-15T12:04:40.406Z,988.4
2022-09-15T12:05:41.396Z,988.5
2022-09-15T12:06:45.683Z,988.5
2022-09-15T12:07:43.405Z,988.4
2022-09-15T12:08:44.461Z,988.4
2022-09-15T12:09:46.422Z,988.4
2022-09-15T12:10:47.427Z,988.4
2022-09-15T12:11:48.365Z,988.4
2022-09-15T12:12:49.436Z,988.4
2022-09-15T12:13:51.406Z,988.3
2022-09-15T12:14:52.813Z,988.4
2022-09-15T12:15:54.404Z,988.4
2022-09-15T12:16:55.386Z,988.4
2022-09-15T12:17:56.420Z,988.4
2022-09-15T12:18:57.437Z,988.4
2022-09-15T12:19:58.439Z,988.4
2022-09-15T12:20:59.413Z,988.4
2022-09-15T12:22:00.379Z,988.3
2022-09-15T12:23:01.387Z,988.3
2022-09-15T12:24:02.551Z,988.3
2022-09-15T12:25:04.431Z,988.3
2022-09-15T12:26:05.408Z,988.3
2022-09-15T12:27:06.442Z,988.3
2022-09-15T12:28:07.430Z,988.4
2022-09-15T12:29:08.425Z,988.3
2022-09-15T12:30:09.494Z,988.4
2022-09-15T12:31:10.481Z,988.4
2022-09-15T12:32:11.409Z,988.4
2022-09-15T12:33:12.418Z,988.4
2022-09-15T12:34:13.415Z,988.4
2022-09-15T12:35:14.468Z,988.4
2022-09-15T12:36:15.400Z,988.4
2022-09-15T12:37:16.458Z,988.4
2022-09-15T12:38:17.406Z,988.4
2022-09-15T12:39:18.426Z,988.4
2022-09-15T12:40:19.504Z,988.4
2022-09-15T12:41:20.444Z,988.3
2022-09-15T12:42:21.431Z,988.3
2022-09-15T12:43:22.444Z,988.3
2022-09-15T12:44:23.432Z,988.3
2022-09-15T12:45:24.488Z,988.3
2022-09-15T12:46:25.522Z,988.3
2022-09-15T12:47:26.737Z,988.3
2022-09-15T12:48:28.431Z,988.3
2022-09-15T12:49:29.438Z,988.3
2022-09-15T12:50:30.455Z,988.3
2022-09-15T12:51:31.465Z,988.3
2022-09-15T12:52:32.493Z,988.3
2022-09-15T12:54:34.467Z,988.3
2022-09-15T12:55:35.446Z,988.3
2022-09-15T12:56:36.473Z,988.2
2022-09-15T12:57:37.448Z,988.3
2022-09-15T12:58:38.526Z,988.3
2022-09-15T12:59:39.486Z,988.2
2022-09-15T13:00:49.861Z,988.2
2022-09-15T13:01:41.505Z,988.3
2022-09-15T13:02:42.624Z,988.3
2022-09-15T13:03:44.503Z,988.2
2022-09-15T13:04:45.492Z,988.2
2022-09-15T13:05:46.502Z,988.2
2022-09-15T13:06:47.683Z,988.2
2022-09-15T13:07:49.503Z,988.2
2022-09-15T13:08:50.484Z,988.2
2022-09-15T13:09:51.485Z,988.2
2022-09-15T13:10:52.505Z,988.2
2022-09-15T13:11:53.481Z,988.2
2022-09-15T13:12:54.540Z,988.2
2022-09-15T13:13:55.488Z,988.1
2022-09-15T13:14:56.464Z,988.1
2022-09-15T13:15:57.668Z,988.1
2022-09-15T13:16:59.537Z,988.1